Time;durP1;ratioP1;P1;durP2;ratioP2;P2;SDS_P1;SDS_P2;PMS_P1;PMS_P2;Temp;Humidity;BMP_temperature;BMP_pressure;BME280_temperature;BME280_humidity;BME280_pressure;Samples;Min_cycle;Max_cycle;Signal;HPM_P1;HPM_P2
2022/03/10 00:01:26;;;;;;;8.20;4.93;;;;;;;-9.31;44.98;100775.84;5052190;28;20152;-82
2022/03/10 00:03:52;;;;;;;;;;;;;;;-9.37;45.18;100785.34;5029794;28;20077;-81
2022/03/10 00:06:17;;;;;;;9.85;4.90;;;;;;;-9.44;45.12;100768.78;5064555;28;19923;-81
2022/03/10 00:08:43;;;;;;;10.52;5.20;;;;;;;-9.39;44.38;100769.22;5035921;28;20472;-81
2022/03/10 00:11:09;;;;;;;;;;;;;;;-9.37;44.54;100775.28;5020444;28;20037;-82
2022/03/10 00:13:34;;;;;;;10.75;5.75;;;;;;;-9.48;44.62;100775.19;5052074;28;20334;-82
2022/03/10 00:16:00;;;;;;;;;;;;;;;-9.51;44.91;100784.06;5036301;28;20060;-82
2022/03/10 00:18:26;;;;;;;11.07;5.65;;;;;;;-9.54;45.02;100789.66;5052162;28;19919;-82
2022/03/10 00:20:52;;;;;;;12.60;6.15;;;;;;;-9.56;44.61;100792.78;5035929;28;20051;-82
2022/03/10 00:23:17;;;;;;;13.45;6.85;;;;;;;-9.52;44.85;100783.19;5019928;28;20083;-82
2022/03/10 00:25:43;;;;;;;12.15;7.25;;;;;;;-9.59;45.21;100792.50;5035752;28;20041;-82
2022/03/10 00:28:09;;;;;;;;;;;;;;;-9.66;45.58;100793.56;5019432;28;20039;-82
2022/03/10 00:30:34;;;;;;;15.88;8.05;;;;;;;-9.66;45.58;100785.16;5052716;28;19916;-82
2022/03/10 00:33:00;;;;;;;15.05;7.47;;;;;;;-9.66;45.53;100782.63;5052580;28;20072;-82
2022/03/10 00:35:26;;;;;;;15.35;7.35;;;;;;;-9.67;45.00;100780.84;5018724;28;20041;-82
2022/03/10 00:37:52;;;;;;;;;;;;;;;-9.73;44.70;100794.59;5035704;28;20094;-82
2022/03/10 00:40:19;;;;;;;14.18;7.13;;;;;;;-9.70;45.91;100794.03;5027491;28;19944;-82
2022/03/10 00:42:45;;;;;;;13.13;6.78;;;;;;;-9.69;45.87;100800.81;4999080;28;20120;-81
2022/03/10 00:45:11;;;;;;;;;;;;;;;-9.61;45.22;100799.91;5035551;28;20045;-81
2022/03/10 00:47:36;;;;;;;10.65;6.22;;;;;;;-9.63;45.35;100795.47;5051442;28;19998;-81
2022/03/10 00:50:03;;;;;;;10.18;6.20;;;;;;;-9.68;45.29;100787.50;5019015;28;20056;-81
2022/03/10 00:52:28;;;;;;;;;;;;;;;-9.73;45.13;100797.13;5036161;28;20037;-82
2022/03/10 00:54:54;;;;;;;9.10;5.68;;;;;;;-9.71;45.32;100787.22;5039757;28;20331;-82
2022/03/10 00:57:19;;;;;;;;;;;;;;;-9.62;44.85;100802.25;5036105;28;20068;-83
2022/03/10 00:59:45;;;;;;;11.45;5.70;;;;;;;-9.70;45.52;100798.16;5052260;28;19916;-83
2022/03/10 01:02:11;;;;;;;11.32;5.97;;;;;;;-9.77;45.28;100807.59;5034898;28;20380;-82
2022/03/10 01:04:36;;;;;;;;;;;;;;;-9.83;44.96;100804.53;5012248;28;20194;-82
2022/03/10 01:07:02;;;;;;;11.45;5.63;;;;;;;-9.84;45.85;100810.28;5018879;28;19912;-82
2022/03/10 01:09:28;;;;;;;;;;;;;;;-9.83;46.48;100807.03;5019078;28;20522;-82
2022/03/10 01:11:54;;;;;;;9.23;5.03;;;;;;;-9.84;44.98;100802.78;5034668;28;19917;-82
2022/03/10 01:14:19;;;;;;;;;;;;;;;-9.87;45.49;100802.47;5034907;28;20041;-82
2022/03/10 01:16:45;;;;;;;9.68;4.80;;;;;;;-9.78;45.16;100810.88;5034749;28;20526;-83
2022/03/10 01:19:10;;;;;;;;;;;;;;;-9.77;46.16;100809.25;5019309;28;20041;-83
2022/03/10 01:21:36;;;;;;;8.75;4.60;;;;;;;-9.78;45.26;100817.53;5051108;28;19959;-83
2022/03/10 01:24:02;;;;;;;8.43;4.30;;;;;;;-9.59;45.58;100813.47;5026581;28;20078;-83
2022/03/10 01:26:28;;;;;;;;;;;;;;;-9.47;43.99;100823.78;5031693;28;20388;-83
2022/03/10 01:28:53;;;;;;;14.80;5.10;;;;;;;-9.67;44.93;100823.53;5050913;28;19917;-82
2022/03/10 01:31:19;;;;;;;;;;;;;;;-9.74;45.46;100822.97;5019045;28;20028;-83
2022/03/10 01:33:45;;;;;;;10.57;4.55;;;;;;;-9.75;44.72;100831.25;5018575;28;20379;-80
2022/03/10 01:36:12;;;;;;;9.13;4.68;;;;;;;-9.68;44.38;100825.16;5051699;28;20040;-83
2022/03/10 01:38:39;;;;;;;;;;;;;;;-9.72;45.28;100823.97;5020220;28;20045;-81
2022/03/10 01:41:09;;;;;;;9.50;4.50;;;;;;;-9.79;45.51;100830.81;5055643;28;20046;-81
2022/03/10 01:44:13;;;;;;;9.75;4.60;;;;;;;-9.98;46.75;100830.69;5024975;28;20048;-82
2022/03/10 01:46:39;;;;;;;9.60;4.53;;;;;;;-9.88;45.54;100827.44;4998160;28;20136;-82
2022/03/10 01:49:05;;;;;;;;;;;;;;;-9.79;44.69;100834.22;4985280;28;20565;-82
2022/03/10 01:51:31;;;;;;;10.00;5.25;;;;;;;-9.94;45.35;100836.88;5040220;28;19921;-81
2022/03/10 01:53:57;;;;;;;10.45;4.82;;;;;;;-9.97;45.83;100829.97;5020091;28;20038;-81
2022/03/10 01:56:22;;;;;;;;;;;;;;;-9.89;46.02;100836.59;5004646;28;20041;-81
2022/03/10 01:58:50;;;;;;;8.05;4.65;;;;;;;-9.99;46.20;100849.91;5029412;28;19967;-81
2022/03/10 02:01:16;;;;;;;13.82;5.30;;;;;;;-10.07;45.43;100847.41;5022335;28;20118;-82
2022/03/10 02:03:42;;;;;;;;;;;;;;;-10.02;46.01;100851.22;5038650;28;20515;-82
2022/03/10 02:06:08;;;;;;;17.27;5.15;;;;;;;-10.03;45.64;100854.47;5022616;28;19921;-81
2022/03/10 02:11:19;;;;;;;11.10;5.63;;;;;;;-10.16;46.51;100854.91;5039948;28;20268;-82
2022/03/10 02:13:44;;;;;;;;;;;;;;;-10.18;46.28;100858.88;5016274;28;20056;-81
2022/03/10 02:18:55;;;;;;;8.23;4.88;;;;;;;-10.24;46.59;100860.84;5040963;28;20094;-81
2022/03/10 02:21:20;;;;;;;;;;;;;;;-10.27;46.82;100861.41;5022238;28;20446;-81
2022/03/10 02:23:46;;;;;;;9.18;5.00;;;;;;;-10.31;46.90;100856.88;5026763;28;19916;-82
2022/03/10 02:26:12;;;;;;;;;;;;;;;-10.32;47.64;100862.59;5034687;28;20104;-81
2022/03/10 02:28:38;;;;;;;10.10;5.60;;;;;;;-10.36;46.64;100863.03;5054709;28;20066;-81
2022/03/10 02:31:03;;;;;;;;;;;;;;;-10.40;46.39;100862.59;5038363;28;20029;-81
2022/03/10 02:33:29;;;;;;;12.38;5.53;;;;;;;-10.40;46.42;100873.53;5053669;28;20443;-82
2022/03/10 02:35:54;;;;;;;;;;;;;;;-10.49;46.87;100875.13;5055857;28;20056;-82
2022/03/10 02:38:20;;;;;;;9.02;5.30;;;;;;;-10.53;46.94;100870.56;5054014;28;20003;-81
2022/03/10 02:40:46;;;;;;;;;;;;;;;-10.46;46.62;100882.06;5014942;28;20420;-81
2022/03/10 02:43:11;;;;;;;8.80;4.97;;;;;;;-10.44;47.14;100879.00;5045679;28;20298;-81
2022/03/10 02:45:37;;;;;;;;;;;;;;;-10.46;47.79;100890.47;5030204;28;20037;-82
2022/03/10 02:48:03;;;;;;;10.38;5.15;;;;;;;-10.38;48.03;100881.22;5047353;28;19917;-81
2022/03/10 02:50:29;;;;;;;7.90;4.50;;;;;;;-10.46;47.39;100882.94;5036653;28;20037;-81
2022/03/10 02:52:55;;;;;;;11.85;5.07;;;;;;;-10.42;46.90;100889.16;5003978;28;20389;-82
2022/03/10 02:55:21;;;;;;;8.77;4.93;;;;;;;-10.21;46.72;100895.38;5048803;28;20186;-81
2022/03/10 02:57:47;;;;;;;;;;;;;;;-10.27;47.71;100896.53;5037073;28;20441;-82
2022/03/10 03:00:14;;;;;;;9.82;5.05;;;;;;;-10.31;47.18;100896.09;5036297;28;20363;-82
2022/03/10 03:02:40;;;;;;;9.85;4.65;;;;;;;-10.33;46.51;100888.44;5053949;28;20649;-82
2022/03/10 03:05:06;;;;;;;;;;;;;;;-10.30;46.85;100900.41;5038045;28;20141;-82
2022/03/10 03:07:33;;;;;;;8.98;4.78;;;;;;;-10.40;46.99;100903.63;5039051;28;19928;-82
2022/03/10 03:09:58;;;;;;;9.50;5.25;;;;;;;-10.47;47.23;100911.28;5004981;28;20041;-82
2022/03/10 03:12:24;;;;;;;;;;;;;;;-10.53;46.70;100914.09;5035648;28;20045;-82
2022/03/10 03:14:49;;;;;;;10.38;5.13;;;;;;;-10.65;48.30;100917.00;5053064;28;20023;-82
2022/03/10 03:17:15;;;;;;;;;;;;;;;-10.66;46.89;100917.72;5037385;28;20045;-82
2022/03/10 03:19:41;;;;;;;9.10;5.07;;;;;;;-10.73;48.00;100916.22;5052968;28;20003;-82
2022/03/10 03:22:06;;;;;;;11.55;4.72;;;;;;;-10.70;47.95;100924.06;5020192;28;20041;-83
2022/03/10 03:24:32;;;;;;;;;;;;;;;-10.79;47.48;100916.50;5035109;28;20037;-83
2022/03/10 03:26:59;;;;;;;10.27;4.82;;;;;;;-10.75;48.42;100917.69;5053127;28;19916;-83
2022/03/10 03:29:25;;;;;;;11.18;4.95;;;;;;;-10.72;48.43;100919.59;5001224;28;20050;-83
2022/03/10 03:31:50;;;;;;;11.02;5.07;;;;;;;-10.76;48.46;100920.94;4998059;28;20091;-84
2022/03/10 03:34:16;;;;;;;;;;;;;;;-10.76;48.57;100926.84;5037035;28;20059;-83
2022/03/10 03:36:43;;;;;;;11.10;4.75;;;;;;;-10.66;47.42;100927.75;5021554;28;19921;-81
2022/03/10 03:39:09;;;;;;;20.02;5.35;;;;;;;-10.68;47.67;100929.22;5013298;28;20030;-80
2022/03/10 03:41:35;;;;;;;;;;;;;;;-10.72;48.90;100933.03;4992099;28;20068;-83
2022/03/10 03:44:00;;;;;;;12.52;6.00;;;;;;;-10.75;47.57;100932.75;5016547;28;19959;-84
2022/03/10 03:46:26;;;;;;;;;;;;;;;-10.73;48.19;100935.38;5014077;28;20508;-84
2022/03/10 03:48:52;;;;;;;10.13;5.05;;;;;;;-10.72;48.37;100929.63;5043487;28;20015;-84
2022/03/10 03:51:17;;;;;;;;;;;;;;;-10.79;48.32;100936.56;5014724;28;20037;-82
2022/03/10 03:53:43;;;;;;;11.38;5.18;;;;;;;-10.78;47.58;100933.31;5016669;28;19924;-82
2022/03/10 03:56:09;;;;;;;;;;;;;;;-10.81;49.30;100943.06;5018283;28;20037;-81
2022/03/10 03:58:34;;;;;;;32.25;5.88;;;;;;;-10.83;48.34;100948.63;5015245;28;20430;-81
2022/03/10 04:01:00;;;;;;;;;;;;;;;-10.70;48.75;100949.13;5034578;28;20053;-84
2022/03/10 04:03:25;;;;;;;21.98;5.82;;;;;;;-10.67;47.80;100951.94;5052612;28;19951;-82
2022/03/10 04:05:51;;;;;;;;;;;;;;;-10.45;48.18;100952.44;5053318;28;20098;-83
2022/03/10 04:08:17;;;;;;;10.50;4.05;;;;;;;-10.26;47.62;100950.16;5053335;28;20350;-83
2022/03/10 04:10:43;;;;;;;;;;;;;;;-10.34;45.80;100966.94;5029742;28;20046;-83
2022/03/10 04:13:09;;;;;;;12.32;4.75;;;;;;;-10.42;47.40;100974.44;5033510;28;19917;-84
2022/03/10 04:15:35;;;;;;;18.25;6.90;;;;;;;-10.60;47.71;100973.50;5052644;28;20845;-83
2022/03/10 04:18:01;;;;;;;;;;;;;;;-10.52;47.52;100980.16;5035107;28;20040;-83
2022/03/10 04:20:27;;;;;;;17.85;5.25;;;;;;;-10.62;47.92;100973.34;5052704;28;19916;-83
2022/03/10 04:22:53;;;;;;;;;;;;;;;-10.65;48.45;100973.03;5028717;28;20034;-83
2022/03/10 04:25:19;;;;;;;19.52;5.53;;;;;;;-10.45;47.76;100979.13;5033731;28;19939;-83
2022/03/10 04:27:44;;;;;;;;;;;;;;;-10.36;47.62;100973.41;5034019;28;20040;-83
2022/03/10 04:30:11;;;;;;;13.90;6.35;;;;;;;-10.40;46.97;100976.38;5022463;28;19921;-83
2022/03/10 04:32:43;;;;;;;22.52;6.20;;;;;;;-10.25;47.40;100980.41;5029158;28;20409;-85
2022/03/10 04:35:10;;;;;;;19.00;5.18;;;;;;;-10.34;47.33;100984.50;5018996;28;20095;-85
2022/03/10 04:37:35;;;;;;;20.88;5.97;;;;;;;-10.56;46.95;100983.97;5051967;28;20033;-83
2022/03/10 04:40:01;;;;;;;;;;;;;;;-10.58;47.70;100994.56;5052885;28;20063;-83
2022/03/10 04:42:28;;;;;;;13.38;6.15;;;;;;;-10.33;47.93;100995.41;5035023;28;19913;-84
2022/03/10 04:44:53;;;;;;;13.50;6.10;;;;;;;-10.59;47.03;101000.34;5051471;28;20043;-84
2022/03/10 04:47:19;;;;;;;;;;;;;;;-10.45;47.91;101005.09;5051936;28;20028;-83
2022/03/10 04:49:44;;;;;;;11.43;5.65;;;;;;;-10.30;46.60;101005.78;5023356;28;19964;-83
2022/03/10 04:52:10;;;;;;;17.67;6.70;;;;;;;-10.59;46.41;101000.34;5000582;28;20037;-83
2022/03/10 04:54:36;;;;;;;;;;;;;;;-10.80;46.98;101002.47;5041976;28;20125;-83
2022/03/10 04:57:01;;;;;;;15.27;5.72;;;;;;;-10.70;48.35;101005.91;5052833;28;19913;-82
2022/03/10 04:59:31;;;;;;;17.15;5.53;;;;;;;-10.87;47.77;101004.19;5035063;28;20119;-83
2022/03/10 05:01:57;;;;;;;11.10;5.53;;;;;;;-10.95;48.03;101007.53;5049872;28;20060;-83
2022/03/10 05:04:23;;;;;;;14.15;5.72;;;;;;;-10.96;48.51;101006.66;5033602;28;20136;-82
2022/03/10 05:06:49;;;;;;;;;;;;;;;-10.89;47.52;101018.19;5018906;28;20063;-83
2022/03/10 05:09:15;;;;;;;19.88;7.05;;;;;;;-10.74;48.40;101019.75;5035051;28;20284;-82
2022/03/10 05:11:40;;;;;;;;;;;;;;;-10.80;48.06;101017.50;5020660;28;20049;-83
2022/03/10 05:14:06;;;;;;;10.02;5.22;;;;;;;-10.78;47.84;101018.53;5047565;28;19924;-83
2022/03/10 05:16:32;;;;;;;29.40;6.60;;;;;;;-10.76;48.46;101022.09;5052564;28;20040;-83
2022/03/10 05:18:57;;;;;;;;;;;;;;;-10.68;47.14;101027.00;5036492;28;20034;-83
2022/03/10 05:21:23;;;;;;;13.05;6.28;;;;;;;-10.66;47.72;101021.41;5052012;28;20268;-82
2022/03/10 05:23:52;;;;;;;;;;;;;;;-10.63;46.99;101029.22;5019174;28;20431;-83
2022/03/10 05:26:18;;;;;;;13.15;5.95;;;;;;;-10.54;46.85;101029.25;5051746;28;19912;-83
2022/03/10 05:28:45;;;;;;;22.45;6.55;;;;;;;-10.72;47.37;101037.44;5051321;28;20044;-82
2022/03/10 05:31:10;;;;;;;16.13;5.53;;;;;;;-10.61;47.86;101031.91;5052190;28;20048;-84
2022/03/10 05:33:36;;;;;;;;;;;;;;;-10.61;47.05;101045.31;5019109;28;20097;-82
2022/03/10 05:36:02;;;;;;;17.42;6.75;;;;;;;-10.59;46.73;101048.84;5034727;28;19940;-83
2022/03/10 05:38:27;;;;;;;;;;;;;;;-10.58;47.69;101052.25;5036352;28;20044;-82
2022/03/10 05:40:53;;;;;;;23.50;8.55;;;;;;;-10.52;47.40;101062.94;5035399;28;19913;-83
2022/03/10 05:43:18;;;;;;;;;;;;;;;-10.41;47.98;101057.34;5048257;28;20037;-84
2022/03/10 05:45:44;;;;;;;14.13;6.25;;;;;;;-10.43;46.16;101053.81;5023905;28;19913;-84
2022/03/10 05:48:10;;;;;;;;;;;;;;;-10.42;47.07;101058.09;5035428;28;20049;-84
2022/03/10 05:50:35;;;;;;;18.45;6.82;;;;;;;-10.39;46.87;101053.41;5035819;28;19919;-83
2022/03/10 05:53:03;;;;;;;;;;;;;;;-10.37;45.90;101069.47;5035500;28;20118;-83
2022/03/10 05:55:29;;;;;;;16.23;6.45;;;;;;;-10.27;45.85;101062.13;5049901;28;19919;-84
2022/03/10 05:57:54;;;;;;;;;;;;;;;-10.15;45.43;101066.59;5036481;28;20439;-83
2022/03/10 06:00:20;;;;;;;17.13;6.22;;;;;;;-10.08;45.54;101068.94;5051707;28;19916;-83
2022/03/10 06:02:45;;;;;;;16.98;6.13;;;;;;;-10.09;45.53;101067.19;5018711;28;20061;-83
2022/03/10 06:05:11;;;;;;;19.85;5.63;;;;;;;-10.03;45.44;101072.84;5034517;28;20167;-83
2022/03/10 06:07:37;;;;;;;;;;;;;;;-9.97;44.21;101070.91;5037915;28;20037;-82
2022/03/10 06:10:03;;;;;;;21.50;5.40;;;;;;;-9.93;45.01;101067.97;5051442;28;19913;-83
2022/03/10 06:12:29;;;;;;;11.63;5.47;;;;;;;-9.82;44.09;101084.97;5020875;28;20087;-84
2022/03/10 06:14:57;;;;;;;;;;;;;;;-9.75;43.88;101077.31;5053228;28;20033;-83
2022/03/10 06:17:23;;;;;;;20.83;8.05;;;;;;;-9.63;44.90;101076.75;5051601;28;20012;-83
2022/03/10 06:19:49;;;;;;;;;;;;;;;-9.65;44.71;101073.22;5052043;28;20468;-83
2022/03/10 06:22:18;;;;;;;13.57;5.43;;;;;;;-9.60;44.30;101082.06;5036719;28;19921;-82
2022/03/10 06:24:47;;;;;;;23.55;6.22;;;;;;;-9.52;43.54;101077.06;5027745;28;20037;-83
2022/03/10 06:27:13;;;;;;;21.30;6.47;;;;;;;-9.49;44.14;101084.00;5038405;28;20045;-83
2022/03/10 06:29:42;;;;;;;15.63;5.20;;;;;;;-9.42;43.78;101078.84;5021775;28;20028;-83
2022/03/10 06:32:08;;;;;;;16.08;5.43;;;;;;;-9.33;43.17;101084.75;5039277;28;20045;-83
2022/03/10 06:34:34;;;;;;;;;;;;;;;-9.33;42.61;101084.75;5038167;28;20039;-83
2022/03/10 06:36:59;;;;;;;16.58;8.73;;;;;;;-9.26;43.11;101076.16;5054137;28;19916;-83
2022/03/10 06:39:26;;;;;;;;;;;;;;;-8.89;42.42;101085.63;5038488;28;20033;-83
2022/03/10 06:41:51;;;;;;;9.10;4.43;;;;;;;-8.92;42.56;101079.44;5054738;28;19924;-82
2022/03/10 06:44:17;;;;;;;;;;;;;;;-9.02;42.49;101077.66;5038637;28;20483;-84
2022/03/10 06:46:42;;;;;;;12.10;5.00;;;;;;;-8.90;42.46;101071.28;5037565;28;19917;-82
2022/03/10 06:49:08;;;;;;;10.70;5.50;;;;;;;-8.90;42.20;101078.81;5021128;28;20037;-82
2022/03/10 06:51:34;;;;;;;14.50;5.18;;;;;;;-8.84;42.12;101073.47;5035568;28;20045;-84
2022/03/10 06:53:59;;;;;;;;;;;;;;;-8.80;41.47;101075.53;5019500;28;20477;-84
2022/03/10 06:56:25;;;;;;;17.67;5.05;;;;;;;-8.75;41.62;101070.22;5042300;28;19917;-85
2022/03/10 06:58:51;;;;;;;10.70;4.70;;;;;;;-8.72;41.18;101078.03;5026270;28;20036;-82
2022/03/10 07:01:18;;;;;;;28.25;5.32;;;;;;;-8.64;40.96;101073.75;5021133;28;20486;-84
2022/03/10 07:03:43;;;;;;;15.25;4.45;;;;;;;-8.54;40.94;101080.53;5053805;28;20133;-83
2022/03/10 07:06:09;;;;;;;;;;;;;;;-8.57;40.66;101075.19;5054226;28;20040;-82
2022/03/10 07:08:34;;;;;;;28.55;5.35;;;;;;;-8.66;40.44;101074.31;5053810;28;19920;-84
2022/03/10 07:11:00;;;;;;;;;;;;;;;-8.55;40.74;101078.75;5027673;28;20064;-83
2022/03/10 07:13:26;;;;;;;14.90;4.57;;;;;;;-8.35;40.11;101076.41;5022340;28;19920;-83
2022/03/10 07:15:52;;;;;;;;;;;;;;;-8.39;40.11;101081.06;5037558;28;20041;-82
2022/03/10 07:18:17;;;;;;;9.70;4.57;;;;;;;-8.35;39.80;101073.03;5054294;28;20303;-83
2022/03/10 07:20:43;;;;;;;;;;;;;;;-8.20;39.48;101075.34;5037393;28;20496;-83
2022/03/10 07:23:09;;;;;;;24.65;4.35;;;;;;;-8.16;39.12;101063.03;5053741;28;20391;-84
2022/03/10 07:25:34;;;;;;;;;;;;;;;-8.06;39.48;101065.63;5013918;28;20935;-84
2022/03/10 07:28:00;;;;;;;22.65;4.63;;;;;;;-7.98;39.14;101058.03;5037082;28;19924;-81
2022/03/10 07:30:27;;;;;;;;;;;;;;;-7.85;38.42;101057.53;5054386;28;20045;-84
2022/03/10 07:32:53;;;;;;;9.35;3.25;;;;;;;-7.79;38.96;101063.16;5053321;28;19927;-83
2022/03/10 07:35:18;;;;;;;25.42;4.50;;;;;;;-7.84;38.51;101061.81;5036746;28;20036;-83
2022/03/10 07:37:46;;;;;;;21.90;4.28;;;;;;;-7.80;38.48;101063.88;5034163;28;20049;-83
2022/03/10 07:40:13;;;;;;;9.48;3.60;;;;;;;-7.73;38.18;101070.38;5038114;28;20044;-83
2022/03/10 07:42:38;;;;;;;18.38;4.10;;;;;;;-7.77;39.04;101071.72;5036796;28;20403;-84
2022/03/10 07:45:04;;;;;;;;;;;;;;;-7.73;38.10;101076.28;5001550;28;20047;-81
2022/03/10 07:47:30;;;;;;;15.48;3.92;;;;;;;-7.63;38.92;101072.97;5045628;28;20018;-86
2022/03/10 07:49:57;;;;;;;12.02;4.82;;;;;;;-7.60;37.99;101068.22;5055318;28;20523;-82
2022/03/10 07:52:23;;;;;;;13.80;4.00;;;;;;;-7.50;37.88;101064.88;5053160;28;20041;-83
2022/03/10 07:54:48;;;;;;;14.77;3.80;;;;;;;-7.48;38.39;101063.38;5034618;28;20037;-84
2022/03/10 07:57:14;;;;;;;19.23;3.25;;;;;;;-7.42;38.29;101068.97;5040397;28;20051;-82
2022/03/10 07:59:40;;;;;;;27.17;4.15;;;;;;;-7.36;36.87;101074.56;5036992;28;20049;-84
2022/03/10 08:02:05;;;;;;;8.27;3.67;;;;;;;-7.32;38.21;101070.69;5035822;28;20523;-84
2022/03/10 08:04:31;;;;;;;18.50;4.32;;;;;;;-7.29;38.73;101065.88;4996924;28;20052;-83
2022/03/10 08:06:57;;;;;;;22.63;4.10;;;;;;;-7.22;37.24;101070.72;5031717;28;20094;-83
2022/03/10 08:09:22;;;;;;;30.85;4.35;;;;;;;-7.14;37.44;101069.78;5011917;28;20041;-86
2022/03/10 08:11:48;;;;;;;73.25;7.82;;;;;;;-7.20;37.28;101070.09;5027936;28;20034;-83
2022/03/10 08:14:14;;;;;;;14.75;2.95;;;;;;;-7.06;36.09;101071.31;5051823;28;20040;-82
2022/03/10 08:16:40;;;;;;;36.55;5.45;;;;;;;-6.93;36.93;101069.13;5054509;28;20407;-85
2022/03/10 08:19:09;;;;;;;20.42;3.95;;;;;;;-6.99;37.11;101072.75;5036112;28;20041;-83
2022/03/10 08:21:34;;;;;;;7.35;2.78;;;;;;;-6.88;36.48;101069.53;5036384;28;20033;-83
2022/03/10 08:24:00;;;;;;;12.15;3.38;;;;;;;-6.83;37.04;101074.97;5019735;28;20067;-86
2022/03/10 08:26:26;;;;;;;21.10;3.88;;;;;;;-6.80;35.58;101076.13;5045371;28;20117;-82
2022/03/10 08:28:53;;;;;;;13.85;3.30;;;;;;;-6.78;37.08;101068.69;5033208;28;20033;-84
2022/03/10 08:31:19;;;;;;;22.17;4.43;;;;;;;-6.79;37.27;101080.41;5052931;28;20117;-86
2022/03/10 08:33:45;;;;;;;18.58;4.05;;;;;;;-6.74;37.18;101071.59;5036570;28;20127;-83
2022/03/10 08:36:11;;;;;;;20.45;3.47;;;;;;;-6.62;35.29;101070.91;5036369;28;20495;-85
2022/03/10 08:38:37;;;;;;;7.88;3.65;;;;;;;-6.63;35.97;101072.56;5053046;28;20040;-84
2022/03/10 08:41:03;;;;;;;;;;;;;;;-6.54;35.38;101075.88;5036677;28;20399;-85
2022/03/10 08:43:30;;;;;;;8.02;3.83;;;;;;;-6.51;35.59;101078.63;5019905;28;19916;-83
2022/03/10 08:45:56;;;;;;;8.40;3.08;;;;;;;-6.33;36.24;101066.72;5053767;28;20033;-84
2022/03/10 08:48:22;;;;;;;22.45;3.33;;;;;;;-6.17;34.53;101068.91;5036330;28;20048;-84
2022/03/10 08:50:48;;;;;;;9.70;3.38;;;;;;;-6.22;34.76;101065.13;5035954;28;20035;-83
2022/03/10 08:53:13;;;;;;;7.18;3.08;;;;;;;-6.11;35.25;101073.59;5032351;28;20037;-84
2022/03/10 08:55:39;;;;;;;8.27;3.60;;;;;;;-6.06;34.63;101072.34;5041439;28;20033;-84
2022/03/10 08:58:05;;;;;;;8.52;3.13;;;;;;;-6.08;35.49;101078.91;5035313;28;20098;-84
2022/03/10 09:00:31;;;;;;;10.57;3.42;;;;;;;-5.95;36.08;101081.72;5035202;28;20044;-83
2022/03/10 09:02:57;;;;;;;9.25;3.22;;;;;;;-5.95;36.01;101081.72;5052447;28;20033;-83
2022/03/10 09:05:22;;;;;;;14.05;3.45;;;;;;;-5.92;35.84;101081.94;5019458;28;20059;-84
2022/03/10 09:07:48;;;;;;;8.50;3.35;;;;;;;-5.94;34.95;101080.94;5025081;28;20064;-84
2022/03/10 09:10:14;;;;;;;10.25;3.40;;;;;;;-5.83;35.22;101077.63;5030955;28;20029;-84
2022/03/10 09:12:41;;;;;;;9.95;2.95;;;;;;;-5.70;35.08;101069.44;5022219;28;20045;-83
2022/03/10 09:15:07;;;;;;;4.32;1.92;;;;;;;-5.62;34.88;101074.38;5035548;28;20043;-85
2022/03/10 09:17:33;;;;;;;17.75;3.70;;;;;;;-5.63;34.40;101070.06;5035742;28;20068;-85
2022/03/10 09:19:59;;;;;;;27.13;7.85;;;;;;;-5.65;34.28;101076.63;5051908;28;20060;-85
2022/03/10 09:22:25;;;;;;;16.10;3.95;;;;;;;-5.55;33.49;101069.81;5017110;28;20041;-83
2022/03/10 09:24:52;;;;;;;28.48;4.35;;;;;;;-5.56;34.01;101073.09;5032409;28;20394;-84
2022/03/10 09:27:18;;;;;;;27.92;4.07;;;;;;;-5.53;33.67;101068.31;5021187;28;20121;-82
2022/03/10 09:29:44;;;;;;;9.65;3.45;;;;;;;-5.35;33.72;101076.50;4999893;28;20037;-86
2022/03/10 09:32:11;;;;;;;5.35;2.83;;;;;;;-5.18;34.02;101059.41;5042535;28;20045;-83
2022/03/10 09:34:36;;;;;;;19.98;3.40;;;;;;;-4.78;33.13;101067.66;5037908;28;20032;-84
2022/03/10 09:37:02;;;;;;;11.63;3.00;;;;;;;-4.60;32.60;101064.03;5018813;28;20059;-84
2022/03/10 09:39:28;;;;;;;13.02;3.10;;;;;;;-4.52;32.38;101066.28;5017485;28;20037;-84
2022/03/10 09:41:55;;;;;;;12.80;3.00;;;;;;;-4.19;32.21;101058.75;5033754;28;20043;-83
2022/03/10 09:44:21;;;;;;;9.70;3.17;;;;;;;-3.72;31.06;101058.94;5028793;28;20164;-87
2022/03/10 09:46:50;;;;;;;14.40;3.10;;;;;;;-3.48;30.76;101049.75;5029471;28;20049;-83
2022/03/10 09:49:18;;;;;;;10.57;2.88;;;;;;;-3.21;30.57;101044.91;5042083;28;20045;-83
2022/03/10 09:51:44;;;;;;;8.57;3.42;;;;;;;-2.59;30.27;101054.50;5045756;28;20412;-84
2022/03/10 09:54:09;;;;;;;8.43;2.85;;;;;;;-2.00;29.28;101040.75;5035975;28;20047;-85
2022/03/10 09:56:36;;;;;;;10.43;3.33;;;;;;;-1.27;27.85;101047.31;5053107;28;20047;-83
2022/03/10 09:59:08;;;;;;;11.57;3.00;;;;;;;-0.38;26.52;101044.50;5034546;28;20410;-83
2022/03/10 10:01:34;;;;;;;15.73;3.33;;;;;;;0.81;25.10;101043.06;5037064;28;20139;-84
2022/03/10 10:04:00;;;;;;;8.27;3.00;;;;;;;1.72;23.91;101037.03;5034055;28;20049;-84
2022/03/10 10:06:26;;;;;;;10.95;2.90;;;;;;;2.47;23.57;101032.34;4998981;28;20080;-83
2022/03/10 10:08:55;;;;;;;11.15;4.20;;;;;;;3.13;22.18;101033.91;5011855;28;20457;-83
2022/03/10 10:11:32;;;;;;;7.50;3.25;;;;;;;3.58;21.38;101029.19;5026026;28;20476;-84
2022/03/10 10:13:58;;;;;;;15.25;3.45;;;;;;;3.33;22.08;101034.84;5048347;28;20123;-83
2022/03/10 10:16:23;;;;;;;9.02;3.38;;;;;;;3.68;21.95;101009.94;5021931;28;20392;-83
2022/03/10 10:18:56;;;;;;;10.70;3.10;;;;;;;4.57;21.34;101020.66;5037848;28;20037;-84
2022/03/10 10:21:23;;;;;;;7.00;2.22;;;;;;;5.22;21.18;101015.56;5055477;28;20040;-84
2022/03/10 10:23:50;;;;;;;15.43;3.60;;;;;;;5.53;19.82;101013.34;5021819;28;20500;-84
2022/03/10 10:26:15;;;;;;;11.68;3.05;;;;;;;5.74;19.73;101010.72;5054931;28;20048;-84
2022/03/10 10:28:42;;;;;;;9.07;3.10;;;;;;;5.51;19.49;101015.00;5021722;28;20379;-84
2022/03/10 10:31:12;;;;;;;13.18;3.50;;;;;;;5.71;19.43;101015.72;5033189;28;20064;-84
2022/03/10 10:33:43;;;;;;;10.57;2.78;;;;;;;5.61;18.65;101013.66;5034916;28;20042;-84
2022/03/10 10:36:23;;;;;;;8.93;2.40;;;;;;;5.49;18.81;101014.03;5015162;28;20045;-83
2022/03/10 10:38:49;;;;;;;8.90;3.15;;;;;;;5.81;18.41;101002.38;4981939;28;20037;-83
2022/03/10 10:41:28;;;;;;;7.95;3.65;;;;;;;5.92;18.13;101005.38;5014945;28;20029;-84
2022/03/10 10:44:02;;;;;;;12.45;4.10;;;;;;;6.05;18.53;101009.28;5025983;28;20716;-83
2022/03/10 10:46:33;;;;;;;17.02;3.67;;;;;;;6.62;18.84;101009.53;5037262;28;20036;-83
2022/03/10 10:49:04;;;;;;;7.95;3.28;;;;;;;7.00;18.27;101004.72;5053884;28;20052;-84
2022/03/10 10:51:32;;;;;;;10.65;2.60;;;;;;;7.04;17.45;101004.00;5054283;28;20029;-84
2022/03/10 10:53:59;;;;;;;8.32;2.83;;;;;;;7.29;17.64;101003.09;5054388;28;20092;-84
2022/03/10 10:56:28;;;;;;;12.50;2.97;;;;;;;7.38;17.88;100998.19;5021600;28;20100;-85
2022/03/10 10:58:54;;;;;;;13.45;2.80;;;;;;;7.71;16.96;100989.69;5033474;28;20567;-84
2022/03/10 11:01:46;;;;;;;11.32;2.92;;;;;;;8.08;16.05;100989.88;5028199;28;20148;-85
2022/03/10 11:04:12;;;;;;;5.78;2.50;;;;;;;8.03;16.31;100990.59;5025794;28;20298;-85
2022/03/10 11:06:37;;;;;;;;;;;;;;;8.46;16.25;100999.50;5038320;28;20052;-85
2022/03/10 11:09:03;;;;;;;12.50;2.72;;;;;;;8.57;16.23;100998.97;5053543;28;19923;-84
2022/03/10 11:11:29;;;;;;;;;;;;;;;8.49;16.69;100997.00;5040613;28;20238;-84
2022/03/10 11:13:55;;;;;;;9.85;2.92;;;;;;;8.62;16.13;100994.78;5047145;28;19920;-85
2022/03/10 11:16:20;;;;;;;17.85;3.28;;;;;;;8.45;15.85;100984.84;5019621;28;20033;-85
2022/03/10 11:18:51;;;;;;;8.02;2.33;;;;;;;9.38;16.16;100972.38;5037571;28;20396;-85
2022/03/10 11:21:45;;;;;;;7.72;2.33;;;;;;;9.14;15.48;100988.25;5028631;28;20037;-84
2022/03/10 11:24:39;;;;;;;9.13;2.65;;;;;;;8.42;15.28;100992.50;5027919;28;20463;-85
2022/03/10 11:27:35;;;;;;;8.48;2.10;;;;;;;8.75;14.85;100984.72;5027435;28;20091;-85
2022/03/10 11:30:02;;;;;;;9.50;2.73;;;;;;;9.24;16.13;100981.56;5053424;28;20416;-86
2022/03/10 11:32:29;;;;;;;5.93;2.63;;;;;;;8.87;15.74;100982.44;5036993;28;20056;-84
2022/03/10 11:34:58;;;;;;;9.18;2.85;;;;;;;8.85;15.34;100985.00;5036681;28;20542;-85
2022/03/10 11:37:44;;;;;;;10.50;2.83;;;;;;;9.10;15.33;100975.19;5021271;28;20036;-85
2022/03/10 11:40:37;;;;;;;7.88;2.47;;;;;;;9.70;15.87;100973.91;5037521;28;20052;-86